createdAt,value
2023-04-22T00:01:56.860Z,11.17
2023-04-22T00:04:25.122Z,11.14
2023-04-22T00:06:52.937Z,11.16
2023-04-22T00:09:20.557Z,11.12
2023-04-22T00:11:48.149Z,11.12
2023-04-22T00:14:15.813Z,11.08
2023-04-22T00:16:46.472Z,11.11
2023-04-22T00:19:16.123Z,11.08
2023-04-22T00:21:43.751Z,11.07
2023-04-22T00:24:11.354Z,11.08
2023-04-22T00:26:38.907Z,11.05
2023-04-22T00:29:06.571Z,11.06
2023-04-22T00:31:34.228Z,11.07
2023-04-22T00:34:01.987Z,11.09
2023-04-22T00:36:31.344Z,11.07
2023-04-22T00:38:59.041Z,11.06
2023-04-22T00:41:26.903Z,11.05
2023-04-22T00:43:54.928Z,11.03
2023-04-22T00:46:22.986Z,11.02
2023-04-22T00:48:51.058Z,11.03
2023-04-22T00:51:18.914Z,11.01
2023-04-22T00:53:48.035Z,11.03
2023-04-22T00:56:16.488Z,11.01
2023-04-22T00:58:44.608Z,11.00
2023-04-22T01:01:12.479Z,11.01
2023-04-22T01:03:41.697Z,10.97
2023-04-22T01:06:09.598Z,10.94
2023-04-22T01:08:37.328Z,10.91
2023-04-22T01:11:06.482Z,10.90
2023-04-22T01:13:35.774Z,10.89
2023-04-22T01:16:03.750Z,10.89
2023-04-22T01:18:32.313Z,10.87
2023-04-22T01:20:59.838Z,10.82
2023-04-22T01:23:29.262Z,10.83
2023-04-22T01:25:57.528Z,10.83
2023-04-22T01:28:25.749Z,10.83
2023-04-22T01:30:53.321Z,10.85
2023-04-22T01:33:21.027Z,10.82
2023-04-22T01:35:48.655Z,10.78
2023-04-22T01:38:16.410Z,10.80
2023-04-22T01:40:45.287Z,10.79
2023-04-22T01:43:12.983Z,10.79
2023-04-22T01:45:40.850Z,10.80
2023-04-22T01:48:08.480Z,10.77
2023-04-22T01:50:36.307Z,10.76
2023-04-22T01:53:04.142Z,10.71
2023-04-22T01:55:35.885Z,10.69
2023-04-22T01:58:04.956Z,10.64
2023-04-22T02:00:32.840Z,10.63
2023-04-22T02:03:00.617Z,10.60
2023-04-22T02:05:28.515Z,10.57
2023-04-22T02:07:56.204Z,10.54
2023-04-22T02:10:24.011Z,10.51
2023-04-22T02:12:51.642Z,10.50
2023-04-22T02:15:20.875Z,10.50
2023-04-22T02:17:48.559Z,10.46
2023-04-22T02:20:16.364Z,10.45
2023-04-22T02:22:45.671Z,10.44
2023-04-22T02:25:14.011Z,10.39
2023-04-22T02:27:41.549Z,10.36
2023-04-22T02:30:10.519Z,10.35
2023-04-22T02:32:40.241Z,10.34
2023-04-22T02:35:08.560Z,10.30
2023-04-22T02:37:36.322Z,10.29
2023-04-22T02:40:04.608Z,10.28
2023-04-22T02:42:32.348Z,10.25
2023-04-22T02:44:59.948Z,10.25
2023-04-22T02:47:27.524Z,10.23
2023-04-22T02:49:56.429Z,10.22
2023-04-22T02:52:23.985Z,10.14
2023-04-22T02:54:51.611Z,10.08
2023-04-22T02:57:19.143Z,10.06
2023-04-22T02:59:46.739Z,10.02
2023-04-22T03:02:17.038Z,9.97
2023-04-22T03:05:01.862Z,9.88
2023-04-22T03:07:31.573Z,9.82
2023-04-22T03:09:59.941Z,9.80
2023-04-22T03:12:27.552Z,9.80
2023-04-22T03:14:55.294Z,9.77
2023-04-22T03:17:25.827Z,9.75
2023-04-22T03:19:53.667Z,9.67
2023-04-22T03:22:23.665Z,9.62
2023-04-22T03:24:54.184Z,9.58
2023-04-22T03:27:22.053Z,9.54
2023-04-22T03:29:49.653Z,9.49
2023-04-22T03:32:17.406Z,9.39
2023-04-22T03:34:45.536Z,9.34
2023-04-22T03:37:14.001Z,9.29
2023-04-22T03:39:43.286Z,9.27
2023-04-22T03:42:11.894Z,9.27
2023-04-22T03:44:43.194Z,9.25
2023-04-22T03:47:11.628Z,9.24
2023-04-22T03:49:45.998Z,9.23
2023-04-22T03:52:13.837Z,9.21
2023-04-22T03:54:49.181Z,9.19
2023-04-22T03:57:16.859Z,9.17
2023-04-22T03:59:45.041Z,9.15
2023-04-22T04:02:13.553Z,9.18
2023-04-22T04:04:41.413Z,9.08
2023-04-22T04:07:09.615Z,9.08
2023-04-22T04:09:38.330Z,9.07
2023-04-22T04:12:08.571Z,9.07
2023-04-22T04:14:40.518Z,9.03
2023-04-22T04:17:10.044Z,9.00
2023-04-22T04:19:38.742Z,9.01
2023-04-22T04:22:07.644Z,8.95
2023-04-22T04:24:42.455Z,8.93
2023-04-22T04:27:17.987Z,8.91
2023-04-22T04:29:52.478Z,8.88
2023-04-22T04:32:34.222Z,8.81
2023-04-22T04:35:04.675Z,8.80
2023-04-22T04:37:32.442Z,8.75
2023-04-22T04:40:07.621Z,8.75
2023-04-22T04:42:53.037Z,8.74
2023-04-22T04:45:25.150Z,8.72
2023-04-22T04:47:54.646Z,8.74
2023-04-22T04:50:30.470Z,8.80
2023-04-22T04:53:02.337Z,8.83
2023-04-22T04:55:40.020Z,8.82
2023-04-22T04:58:15.552Z,8.83
2023-04-22T05:00:43.367Z,8.83
2023-04-22T05:03:12.149Z,8.82
2023-04-22T05:05:40.502Z,8.78
2023-04-22T05:08:08.258Z,8.77
2023-04-22T05:10:38.545Z,8.75
2023-04-22T05:13:06.122Z,8.73
2023-04-22T05:15:36.140Z,8.74
2023-04-22T05:18:04.096Z,8.71
2023-04-22T05:20:35.324Z,8.71
2023-04-22T05:23:04.235Z,8.69
2023-04-22T05:25:31.934Z,8.61
2023-04-22T05:28:05.229Z,8.54
2023-04-22T05:30:41.696Z,8.56
2023-04-22T05:33:10.085Z,8.66
2023-04-22T05:35:38.060Z,8.73
2023-04-22T05:38:05.808Z,8.77
2023-04-22T05:40:34.241Z,8.80
2023-04-22T05:43:04.443Z,8.86
2023-04-22T05:45:32.255Z,8.91
2023-04-22T05:48:01.772Z,8.98
2023-04-22T05:50:33.067Z,9.05
2023-04-22T05:53:06.944Z,9.12
2023-04-22T05:55:35.631Z,9.29
2023-04-22T05:58:07.344Z,9.35
2023-04-22T06:00:48.421Z,9.44
2023-04-22T06:03:37.597Z,9.56
2023-04-22T06:06:06.175Z,9.67
2023-04-22T06:08:33.856Z,9.80
2023-04-22T06:11:01.541Z,9.90
2023-04-22T06:13:32.334Z,10.04
2023-04-22T06:16:00.948Z,10.13
2023-04-22T06:18:29.224Z,10.22
2023-04-22T06:20:58.560Z,10.31
2023-04-22T06:23:26.388Z,10.41
2023-04-22T06:25:53.970Z,10.51
2023-04-22T06:28:22.463Z,10.59
2023-04-22T06:30:52.152Z,10.64
2023-04-22T06:33:19.726Z,10.70
2023-04-22T06:35:47.501Z,10.78
2023-04-22T06:38:16.877Z,10.88
2023-04-22T06:41:02.860Z,10.99
2023-04-22T06:43:35.570Z,11.08
2023-04-22T06:46:08.749Z,11.15
2023-04-22T06:48:48.862Z,11.24
2023-04-22T06:51:39.305Z,11.35
2023-04-22T06:54:09.447Z,11.43
2023-04-22T06:56:37.052Z,11.50
2023-04-22T06:59:04.811Z,11.56
2023-04-22T07:01:32.391Z,11.62
2023-04-22T07:04:00.152Z,11.69
2023-04-22T07:06:27.944Z,11.96
2023-04-22T07:08:55.969Z,12.23
2023-04-22T07:11:25.094Z,12.56
2023-04-22T07:14:03.101Z,12.78
2023-04-22T07:16:30.800Z,12.99
2023-04-22T07:18:59.149Z,13.16
2023-04-22T07:21:26.691Z,13.22
2023-04-22T07:23:54.277Z,13.24
2023-04-22T07:26:21.924Z,13.38
2023-04-22T07:28:51.045Z,13.45
2023-04-22T07:31:18.705Z,13.54
2023-04-22T07:33:46.346Z,13.73
2023-04-22T07:36:13.895Z,13.98
2023-04-22T07:38:41.461Z,14.14
2023-04-22T07:41:09.014Z,14.25
2023-04-22T07:43:36.880Z,14.33
2023-04-22T07:46:06.005Z,14.29
2023-04-22T07:48:33.573Z,14.25
2023-04-22T07:51:01.149Z,14.33
2023-04-22T07:53:28.818Z,14.43
2023-04-22T07:55:57.035Z,14.42
2023-04-22T07:58:24.632Z,14.47
2023-04-22T08:00:52.290Z,14.56
2023-04-22T08:03:21.437Z,14.61
2023-04-22T08:05:49.149Z,14.71
2023-04-22T08:08:16.733Z,14.80
2023-04-22T08:10:44.295Z,14.90
2023-04-22T08:13:11.826Z,15.03
2023-04-22T08:15:39.962Z,15.15
2023-04-22T08:18:07.673Z,15.29
2023-04-22T08:20:36.661Z,15.50
2023-04-22T08:23:04.574Z,15.67
2023-04-22T08:25:32.276Z,15.77
2023-04-22T08:27:59.877Z,15.86
2023-04-22T08:30:27.556Z,16.01
2023-04-22T08:32:55.160Z,16.17
2023-04-22T08:35:22.730Z,16.31
2023-04-22T08:37:51.634Z,16.49
2023-04-22T08:40:19.240Z,16.62
2023-04-22T08:42:47.743Z,16.79
2023-04-22T08:45:15.894Z,16.89
2023-04-22T08:47:43.751Z,17.02
2023-04-22T08:50:12.036Z,17.12
2023-04-22T08:52:39.894Z,17.18
2023-04-22T08:55:09.863Z,17.24
2023-04-22T08:57:39.318Z,17.34
2023-04-22T09:00:08.953Z,17.48
2023-04-22T09:02:38.529Z,17.68
2023-04-22T09:05:07.710Z,17.80
2023-04-22T09:07:36.361Z,17.96
2023-04-22T09:10:04.139Z,17.98
2023-04-22T09:12:33.036Z,18.07
2023-04-22T09:15:00.674Z,18.19
2023-04-22T09:17:33.083Z,18.27
2023-04-22T09:20:01.803Z,18.50
2023-04-22T09:22:30.439Z,18.60
2023-04-22T09:24:58.595Z,18.72
2023-04-22T09:27:27.109Z,18.88
2023-04-22T09:29:56.056Z,19.00
2023-04-22T09:32:25.839Z,19.24
2023-04-22T09:34:55.448Z,19.35
2023-04-22T09:37:30.975Z,19.44
2023-04-22T09:40:08.710Z,19.55
2023-04-22T09:42:49.266Z,19.68
2023-04-22T09:45:28.200Z,19.76
2023-04-22T09:47:57.812Z,19.94
2023-04-22T09:50:27.464Z,20.08
2023-04-22T09:52:56.531Z,20.28
2023-04-22T09:55:26.441Z,20.61
2023-04-22T09:57:55.388Z,20.92
2023-04-22T10:00:24.650Z,20.91
2023-04-22T10:02:53.610Z,21.02
2023-04-22T10:05:21.321Z,21.08
2023-04-22T10:07:49.199Z,21.32
2023-04-22T10:10:16.938Z,21.55
2023-04-22T10:12:44.875Z,21.80
2023-04-22T10:15:12.503Z,21.83
2023-04-22T10:17:40.696Z,21.82
2023-04-22T10:20:14.125Z,21.68
2023-04-22T10:22:43.560Z,21.74
2023-04-22T10:25:21.751Z,21.68
2023-04-22T10:27:54.266Z,21.62
2023-04-22T10:30:28.823Z,21.57
2023-04-22T10:32:56.719Z,21.72
2023-04-22T10:35:30.250Z,21.60
2023-04-22T10:37:58.853Z,21.81
2023-04-22T10:40:27.143Z,22.02
2023-04-22T10:43:03.358Z,22.19
2023-04-22T10:45:33.438Z,22.23
2023-04-22T10:48:04.829Z,22.51
2023-04-22T10:50:33.786Z,22.32
2023-04-22T10:53:26.196Z,22.53
2023-04-22T10:55:56.343Z,22.80
2023-04-22T10:58:25.694Z,22.88
2023-04-22T11:00:59.748Z,23.12
2023-04-22T11:03:30.331Z,23.14
2023-04-22T11:06:30.129Z,22.96
2023-04-22T11:09:09.981Z,23.15
2023-04-22T11:11:37.639Z,23.31
2023-04-22T11:14:05.836Z,23.45
2023-04-22T11:16:34.430Z,23.56
2023-04-22T11:19:02.418Z,23.75
2023-04-22T11:21:32.911Z,23.86
2023-04-22T11:24:02.949Z,24.00
2023-04-22T11:26:35.085Z,23.58
2023-04-22T11:29:02.733Z,23.50
2023-04-22T11:31:30.412Z,23.73
2023-04-22T11:33:59.896Z,23.37
2023-04-22T11:36:27.535Z,23.06
2023-04-22T11:38:57.007Z,23.07
2023-04-22T11:41:24.587Z,22.85
2023-04-22T11:43:52.165Z,22.85
2023-04-22T11:46:29.633Z,22.87
2023-04-22T11:49:12.585Z,22.56
2023-04-22T11:51:53.221Z,22.56
2023-04-22T11:54:34.574Z,22.44
2023-04-22T11:57:04.647Z,22.45
2023-04-22T11:59:32.275Z,22.38
2023-04-22T12:01:59.866Z,22.15
2023-04-22T12:04:27.465Z,22.08
2023-04-22T12:06:55.127Z,21.89
2023-04-22T12:09:25.702Z,21.96
2023-04-22T12:11:56.901Z,22.22
2023-04-22T12:14:32.327Z,22.27
2023-04-22T12:17:04.512Z,22.50
2023-04-22T12:19:32.445Z,22.57
2023-04-22T12:22:00.139Z,22.53
2023-04-22T12:24:29.331Z,22.49
2023-04-22T12:26:58.571Z,22.30
2023-04-22T12:29:32.080Z,22.26
2023-04-22T12:31:59.913Z,22.65
2023-04-22T12:34:27.533Z,22.63
2023-04-22T12:36:56.204Z,22.62
2023-04-22T12:39:23.866Z,22.52
2023-04-22T12:41:51.469Z,22.72
2023-04-22T12:44:20.407Z,23.12
2023-04-22T12:46:48.112Z,22.97
2023-04-22T12:49:15.802Z,23.23
2023-04-22T12:51:43.353Z,23.36
2023-04-22T12:54:10.911Z,23.57
2023-04-22T12:56:38.582Z,23.05
2023-04-22T12:59:06.102Z,22.99
2023-04-22T13:01:35.967Z,23.12
2023-04-22T13:04:03.824Z,23.24
2023-04-22T13:06:32.336Z,23.29
2023-04-22T13:09:00.136Z,23.62
2023-04-22T13:11:27.750Z,23.45
2023-04-22T13:13:55.301Z,24.01
2023-04-22T13:16:22.987Z,24.41
2023-04-22T13:18:52.475Z,25.06
2023-04-22T13:21:20.003Z,25.49
2023-04-22T13:23:47.577Z,26.18
2023-04-22T13:26:15.153Z,26.83
2023-04-22T13:28:43.083Z,26.10
2023-04-22T13:31:10.661Z,25.99
2023-04-22T13:33:39.149Z,25.92
2023-04-22T13:36:08.418Z,25.50
2023-04-22T13:38:36.094Z,26.19
2023-04-22T13:41:03.716Z,27.02
2023-04-22T13:43:31.276Z,28.10
2023-04-22T13:45:59.064Z,28.57
2023-04-22T13:48:27.452Z,28.01
2023-04-22T13:50:55.006Z,28.33
2023-04-22T13:53:23.955Z,27.47
2023-04-22T13:55:51.634Z,27.28
2023-04-22T13:58:19.232Z,26.46
2023-04-22T14:00:46.897Z,25.76
2023-04-22T14:03:14.859Z,25.88
2023-04-22T14:05:42.575Z,25.94
2023-04-22T14:08:10.357Z,25.66
2023-04-22T14:10:39.317Z,25.45
2023-04-22T14:13:06.930Z,24.69
2023-04-22T14:15:34.622Z,24.73
2023-04-22T14:18:02.320Z,24.72
2023-04-22T14:20:29.927Z,24.86
2023-04-22T14:22:57.541Z,25.12
2023-04-22T14:25:25.096Z,25.25
2023-04-22T14:27:54.012Z,25.37
2023-04-22T14:30:21.912Z,25.27
2023-04-22T14:32:49.901Z,25.33
2023-04-22T14:35:18.507Z,25.57
2023-04-22T14:37:46.161Z,25.43
2023-04-22T14:40:14.321Z,25.16
2023-04-22T14:42:42.318Z,24.72
2023-04-22T14:45:14.438Z,24.46
2023-04-22T14:47:41.986Z,24.09
2023-04-22T14:50:10.063Z,24.02
2023-04-22T14:52:38.036Z,23.66
2023-04-22T14:55:19.441Z,23.40
2023-04-22T14:57:50.654Z,23.22
2023-04-22T15:00:19.842Z,23.08
2023-04-22T15:02:47.639Z,23.04
2023-04-22T15:05:15.302Z,22.98
2023-04-22T15:07:42.899Z,22.82
2023-04-22T15:10:10.812Z,22.61
2023-04-22T15:12:38.407Z,22.50
2023-04-22T15:15:06.904Z,22.40
2023-04-22T15:17:35.816Z,22.37
2023-04-22T15:20:05.252Z,22.25
2023-04-22T15:22:33.739Z,22.06
2023-04-22T15:25:01.394Z,21.99
2023-04-22T15:27:29.058Z,21.95
2023-04-22T15:29:57.639Z,21.84
2023-04-22T15:32:25.347Z,21.75
2023-04-22T15:34:54.271Z,21.72
2023-04-22T15:37:21.896Z,21.65
2023-04-22T15:39:49.455Z,21.59
2023-04-22T15:42:17.053Z,21.55
2023-04-22T15:44:44.587Z,21.54
2023-04-22T15:47:12.265Z,21.53
2023-04-22T15:49:39.992Z,21.49
2023-04-22T15:52:09.229Z,21.46
2023-04-22T15:54:36.913Z,21.40
2023-04-22T15:57:04.705Z,21.31
2023-04-22T15:59:32.272Z,21.11
2023-04-22T16:02:00.007Z,21.06
2023-04-22T16:04:27.950Z,20.96
2023-04-22T16:06:57.162Z,20.87
2023-04-22T16:09:26.143Z,20.76
2023-04-22T16:11:55.896Z,20.71
2023-04-22T16:14:23.548Z,20.66
2023-04-22T16:16:51.693Z,20.63
2023-04-22T16:19:19.554Z,20.61
2023-04-22T16:21:47.193Z,20.54
2023-04-22T16:24:15.425Z,20.53
2023-04-22T16:26:44.375Z,20.52
2023-04-22T16:29:12.492Z,20.48
2023-04-22T16:31:40.435Z,20.33
2023-04-22T16:34:08.946Z,20.23
2023-04-22T16:36:36.735Z,20.15
2023-04-22T16:39:04.914Z,20.10
2023-04-22T16:41:32.591Z,20.07
2023-04-22T16:44:02.953Z,19.94
2023-04-22T16:46:30.755Z,19.87
2023-04-22T16:48:58.378Z,19.76
2023-04-22T16:51:25.972Z,19.71
2023-04-22T16:53:53.607Z,19.67
2023-04-22T16:56:21.440Z,19.62
2023-04-22T16:58:49.116Z,19.60
2023-04-22T17:01:18.151Z,19.50
2023-04-22T17:03:46.325Z,19.48
2023-04-22T17:06:14.078Z,19.42
2023-04-22T17:08:41.761Z,19.43
2023-04-22T17:11:09.480Z,19.45
2023-04-22T17:13:37.394Z,19.43
2023-04-22T17:16:06.452Z,19.43
2023-04-22T17:18:35.650Z,19.38
2023-04-22T17:21:03.533Z,19.40
2023-04-22T17:23:31.223Z,19.46
2023-04-22T17:25:59.363Z,19.38
2023-04-22T17:28:26.988Z,19.37
2023-04-22T17:30:54.567Z,19.37
2023-04-22T17:33:22.258Z,19.34
2023-04-22T17:35:51.332Z,19.29
2023-04-22T17:38:19.619Z,19.28
2023-04-22T17:40:47.869Z,19.28
2023-04-22T17:43:15.641Z,19.17
2023-04-22T17:45:44.016Z,19.20
2023-04-22T17:48:11.931Z,19.16
2023-04-22T17:50:39.615Z,19.07
2023-04-22T17:53:08.801Z,18.98
2023-04-22T17:55:36.491Z,18.87
2023-04-22T17:58:06.372Z,18.80
2023-04-22T18:00:34.978Z,18.75
2023-04-22T18:03:02.982Z,18.70
2023-04-22T18:05:32.936Z,18.71
2023-04-22T18:08:02.496Z,18.47
2023-04-22T18:10:31.684Z,18.42
2023-04-22T18:12:59.317Z,18.36
2023-04-22T18:15:27.261Z,18.34
2023-04-22T18:17:57.156Z,18.31
2023-04-22T18:20:24.710Z,18.19
2023-04-22T18:22:52.869Z,18.22
2023-04-22T18:25:20.842Z,18.12
2023-04-22T18:27:50.584Z,18.09
2023-04-22T18:30:18.508Z,17.99
2023-04-22T18:32:46.159Z,17.99
2023-04-22T18:35:15.796Z,17.93
2023-04-22T18:37:44.235Z,17.93
2023-04-22T18:40:12.931Z,17.80
2023-04-22T18:42:44.816Z,17.75
2023-04-22T18:45:16.079Z,17.78
2023-04-22T18:47:45.410Z,17.68
2023-04-22T18:50:13.048Z,17.59
2023-04-22T18:52:40.723Z,17.56
2023-04-22T18:55:17.433Z,17.53
2023-04-22T18:57:45.210Z,17.53
2023-04-22T19:00:16.292Z,17.58
2023-04-22T19:02:45.621Z,17.52
2023-04-22T19:05:14.459Z,17.52
2023-04-22T19:07:44.483Z,17.52
2023-04-22T19:10:12.824Z,17.52
2023-04-22T19:12:40.482Z,17.53
2023-04-22T19:15:09.071Z,17.50
2023-04-22T19:17:38.545Z,17.38
2023-04-22T19:20:08.268Z,17.40
2023-04-22T19:22:36.145Z,17.37
2023-04-22T19:25:05.953Z,17.32
2023-04-22T19:27:34.207Z,17.32
2023-04-22T19:30:02.093Z,17.26
2023-04-22T19:32:29.716Z,17.29
2023-04-22T19:35:04.047Z,17.30
2023-04-22T19:37:31.988Z,17.14
2023-04-22T19:39:59.626Z,17.20
2023-04-22T19:42:28.527Z,17.12
2023-04-22T19:44:58.884Z,17.14
2023-04-22T19:47:27.274Z,17.09
2023-04-22T19:49:58.393Z,16.98
2023-04-22T19:52:31.754Z,16.76
2023-04-22T19:55:09.364Z,16.75
2023-04-22T19:57:43.353Z,16.73
2023-04-22T20:00:16.207Z,16.75
2023-04-22T20:02:50.931Z,16.65
2023-04-22T20:05:34.842Z,16.55
2023-04-22T20:08:16.238Z,16.47
2023-04-22T20:10:49.743Z,16.37
2023-04-22T20:13:23.487Z,16.49
2023-04-22T20:15:51.898Z,16.40
2023-04-22T20:18:22.980Z,16.38
2023-04-22T20:21:01.132Z,16.35
2023-04-22T20:23:35.113Z,16.24
2023-04-22T20:26:05.906Z,16.13
2023-04-22T20:28:44.785Z,16.08
2023-04-22T20:31:13.250Z,16.10
2023-04-22T20:33:41.271Z,16.06
2023-04-22T20:36:09.394Z,16.04
2023-04-22T20:38:38.529Z,15.99
2023-04-22T20:41:07.227Z,16.03
2023-04-22T20:43:35.410Z,15.96
2023-04-22T20:46:03.218Z,15.90
2023-04-22T20:48:31.141Z,15.90
2023-04-22T20:50:58.831Z,15.88
2023-04-22T20:53:28.171Z,15.78
2023-04-22T20:55:57.357Z,15.63
2023-04-22T20:58:24.922Z,15.59
2023-04-22T21:00:52.594Z,15.38
2023-04-22T21:03:23.507Z,15.29
2023-04-22T21:05:52.307Z,15.28
2023-04-22T21:08:22.684Z,15.23
2023-04-22T21:10:51.848Z,15.23
2023-04-22T21:13:21.580Z,15.20
2023-04-22T21:15:55.474Z,15.21
2023-04-22T21:18:25.607Z,15.27
2023-04-22T21:20:53.917Z,15.29
2023-04-22T21:23:24.060Z,15.34
2023-04-22T21:25:54.839Z,15.30
2023-04-22T21:28:24.806Z,15.29
2023-04-22T21:30:53.029Z,15.26
2023-04-22T21:33:20.709Z,15.29
2023-04-22T21:35:48.314Z,15.26
2023-04-22T21:38:16.234Z,15.25
2023-04-22T21:40:43.822Z,15.24
2023-04-22T21:43:11.359Z,15.24
2023-04-22T21:45:40.397Z,15.22
2023-04-22T21:48:08.364Z,15.23
2023-04-22T21:50:36.011Z,15.20
2023-04-22T21:53:03.637Z,15.22
2023-04-22T21:55:31.347Z,15.20
2023-04-22T21:57:58.871Z,15.22
2023-04-22T22:00:26.703Z,15.23
2023-04-22T22:02:55.773Z,15.21
2023-04-22T22:05:23.449Z,15.21
2023-04-22T22:07:52.833Z,15.15
2023-04-22T22:10:20.559Z,15.12
2023-04-22T22:12:48.337Z,15.06
2023-04-22T22:15:16.654Z,15.04
2023-04-22T22:17:44.537Z,15.01
2023-04-22T22:20:16.608Z,15.00
2023-04-22T22:22:45.116Z,15.01
2023-04-22T22:25:13.932Z,14.96
2023-04-22T22:27:45.464Z,14.96
2023-04-22T22:30:14.533Z,14.91
2023-04-22T22:32:42.374Z,14.93
2023-04-22T22:35:10.839Z,14.91
2023-04-22T22:37:39.997Z,14.88
2023-04-22T22:40:09.924Z,14.93
2023-04-22T22:42:37.574Z,14.92
2023-04-22T22:45:06.675Z,14.91
2023-04-22T22:47:34.357Z,14.91
2023-04-22T22:50:02.284Z,14.92
2023-04-22T22:52:29.943Z,14.92
2023-04-22T22:54:58.911Z,14.91
2023-04-22T22:57:26.448Z,14.91
2023-04-22T22:59:54.024Z,14.90
2023-04-22T23:02:21.705Z,14.90
2023-04-22T23:04:49.405Z,14.91
2023-04-22T23:07:17.621Z,14.93
2023-04-22T23:09:45.233Z,14.87
2023-04-22T23:12:14.156Z,14.90
2023-04-22T23:14:42.331Z,14.88
2023-04-22T23:17:10.343Z,14.88
2023-04-22T23:19:37.993Z,14.90
2023-04-22T23:22:07.044Z,14.91
2023-04-22T23:24:35.219Z,14.86
2023-04-22T23:27:03.414Z,14.80
2023-04-22T23:29:33.154Z,14.80
2023-04-22T23:32:03.345Z,14.77
2023-04-22T23:34:33.581Z,14.75
2023-04-22T23:37:05.206Z,14.75
2023-04-22T23:39:32.793Z,14.76
2023-04-22T23:42:01.072Z,14.73
2023-04-22T23:44:28.673Z,14.66
2023-04-22T23:46:57.786Z,14.65
2023-04-22T23:49:25.503Z,14.59
2023-04-22T23:51:53.628Z,14.57
2023-04-22T23:54:21.259Z,14.52
2023-04-22T23:56:49.356Z,14.54
2023-04-22T23:59:17.571Z,14.49
